sensor_id;sensor_type;location;lat;lon;timestamp;temperature;humidity
10644;DHT22;5370;50.132;8.626;2023-05-07T00:00:35;16.80;70.00
10644;DHT22;5370;50.132;8.626;2023-05-07T00:03:01;16.80;70.10
10644;DHT22;5370;50.132;8.626;2023-05-07T00:05:26;16.70;70.20
10644;DHT22;5370;50.132;8.626;2023-05-07T00:07:52;16.70;70.50
10644;DHT22;5370;50.132;8.626;2023-05-07T00:10:18;16.70;70.70
10644;DHT22;5370;50.132;8.626;2023-05-07T00:12:44;16.60;70.90
10644;DHT22;5370;50.132;8.626;2023-05-07T00:15:10;16.60;71.10
10644;DHT22;5370;50.132;8.626;2023-05-07T00:17:36;16.60;71.50
10644;DHT22;5370;50.132;8.626;2023-05-07T00:20:03;16.60;71.90
10644;DHT22;5370;50.132;8.626;2023-05-07T00:22:30;16.60;72.10
10644;DHT22;5370;50.132;8.626;2023-05-07T00:24:56;16.50;72.10
10644;DHT22;5370;50.132;8.626;2023-05-07T00:27:22;16.50;72.40
10644;DHT22;5370;50.132;8.626;2023-05-07T00:29:49;16.50;72.60
10644;DHT22;5370;50.132;8.626;2023-05-07T00:32:14;16.50;72.70
10644;DHT22;5370;50.132;8.626;2023-05-07T00:34:40;16.50;72.90
10644;DHT22;5370;50.132;8.626;2023-05-07T00:37:06;16.40;72.90
10644;DHT22;5370;50.132;8.626;2023-05-07T00:39:35;16.50;73.40
10644;DHT22;5370;50.132;8.626;2023-05-07T00:42:01;16.40;73.50
10644;DHT22;5370;50.132;8.626;2023-05-07T00:44:28;16.40;73.60
10644;DHT22;5370;50.132;8.626;2023-05-07T00:46:54;16.40;73.80
10644;DHT22;5370;50.132;8.626;2023-05-07T00:49:20;16.40;74.00
10644;DHT22;5370;50.132;8.626;2023-05-07T00:51:46;16.40;74.40
10644;DHT22;5370;50.132;8.626;2023-05-07T00:54:13;16.30;75.20
10644;DHT22;5370;50.132;8.626;2023-05-07T00:56:39;16.30;74.80
10644;DHT22;5370;50.132;8.626;2023-05-07T00:59:05;16.30;74.90
10644;DHT22;5370;50.132;8.626;2023-05-07T01:01:31;16.30;75.10
10644;DHT22;5370;50.132;8.626;2023-05-07T01:03:57;16.30;75.20
10644;DHT22;5370;50.132;8.626;2023-05-07T01:06:23;16.30;75.40
10644;DHT22;5370;50.132;8.626;2023-05-07T01:08:51;16.30;75.60
10644;DHT22;5370;50.132;8.626;2023-05-07T01:11:18;16.30;75.60
10644;DHT22;5370;50.132;8.626;2023-05-07T01:13:46;16.30;75.70
10644;DHT22;5370;50.132;8.626;2023-05-07T01:16:12;16.30;75.70
10644;DHT22;5370;50.132;8.626;2023-05-07T01:18:38;16.30;75.80
10644;DHT22;5370;50.132;8.626;2023-05-07T01:21:04;16.40;76.00
10644;DHT22;5370;50.132;8.626;2023-05-07T01:23:30;16.30;76.00
10644;DHT22;5370;50.132;8.626;2023-05-07T01:25:56;16.40;76.10
10644;DHT22;5370;50.132;8.626;2023-05-07T01:28:22;16.30;76.10
10644;DHT22;5370;50.132;8.626;2023-05-07T01:31:00;16.30;76.80
10644;DHT22;5370;50.132;8.626;2023-05-07T01:33:30;16.30;76.20
10644;DHT22;5370;50.132;8.626;2023-05-07T01:35:57;16.30;76.30
10644;DHT22;5370;50.132;8.626;2023-05-07T01:38:27;16.30;76.30
10644;DHT22;5370;50.132;8.626;2023-05-07T01:40:54;16.30;76.50
10644;DHT22;5370;50.132;8.626;2023-05-07T01:43:19;16.30;76.70
10644;DHT22;5370;50.132;8.626;2023-05-07T01:45:46;16.30;76.80
10644;DHT22;5370;50.132;8.626;2023-05-07T01:48:13;16.20;77.10
10644;DHT22;5370;50.132;8.626;2023-05-07T01:50:39;16.20;77.30
10644;DHT22;5370;50.132;8.626;2023-05-07T01:53:05;16.20;77.80
10644;DHT22;5370;50.132;8.626;2023-05-07T01:55:31;16.10;78.10
10644;DHT22;5370;50.132;8.626;2023-05-07T01:57:57;16.10;78.40
10644;DHT22;5370;50.132;8.626;2023-05-07T02:00:23;16.00;78.60
10644;DHT22;5370;50.132;8.626;2023-05-07T02:02:48;16.00;79.10
10644;DHT22;5370;50.132;8.626;2023-05-07T02:05:15;16.00;79.30
10644;DHT22;5370;50.132;8.626;2023-05-07T02:07:40;16.00;79.50
10644;DHT22;5370;50.132;8.626;2023-05-07T02:10:06;16.00;79.80
10644;DHT22;5370;50.132;8.626;2023-05-07T02:12:32;15.90;79.80
10644;DHT22;5370;50.132;8.626;2023-05-07T02:14:57;15.90;80.00
10644;DHT22;5370;50.132;8.626;2023-05-07T02:17:23;15.90;80.10
10644;DHT22;5370;50.132;8.626;2023-05-07T02:19:48;15.90;80.40
10644;DHT22;5370;50.132;8.626;2023-05-07T02:22:14;15.90;80.50
10644;DHT22;5370;50.132;8.626;2023-05-07T02:24:40;15.90;80.70
10644;DHT22;5370;50.132;8.626;2023-05-07T02:27:06;15.90;80.80
10644;DHT22;5370;50.132;8.626;2023-05-07T02:29:32;15.90;80.90
10644;DHT22;5370;50.132;8.626;2023-05-07T02:31:57;15.80;81.00
10644;DHT22;5370;50.132;8.626;2023-05-07T02:34:23;15.80;81.30
10644;DHT22;5370;50.132;8.626;2023-05-07T02:36:48;15.80;81.40
10644;DHT22;5370;50.132;8.626;2023-05-07T02:39:14;15.80;81.50
10644;DHT22;5370;50.132;8.626;2023-05-07T02:41:40;15.80;81.70
10644;DHT22;5370;50.132;8.626;2023-05-07T02:44:06;15.80;81.80
10644;DHT22;5370;50.132;8.626;2023-05-07T02:46:34;15.80;81.80
10644;DHT22;5370;50.132;8.626;2023-05-07T02:49:00;15.80;81.90
10644;DHT22;5370;50.132;8.626;2023-05-07T02:51:25;15.80;81.90
10644;DHT22;5370;50.132;8.626;2023-05-07T02:53:51;15.80;81.90
10644;DHT22;5370;50.132;8.626;2023-05-07T02:56:16;15.80;82.00
10644;DHT22;5370;50.132;8.626;2023-05-07T02:58:42;15.90;82.20
10644;DHT22;5370;50.132;8.626;2023-05-07T03:01:08;15.80;82.30
10644;DHT22;5370;50.132;8.626;2023-05-07T03:03:34;15.80;82.40
10644;DHT22;5370;50.132;8.626;2023-05-07T03:06:00;15.80;82.60
10644;DHT22;5370;50.132;8.626;2023-05-07T03:08:26;15.80;82.80
10644;DHT22;5370;50.132;8.626;2023-05-07T03:10:52;15.80;82.90
10644;DHT22;5370;50.132;8.626;2023-05-07T03:13:18;15.80;83.10
10644;DHT22;5370;50.132;8.626;2023-05-07T03:15:43;15.80;84.00
10644;DHT22;5370;50.132;8.626;2023-05-07T03:18:09;15.80;83.50
10644;DHT22;5370;50.132;8.626;2023-05-07T03:20:35;15.70;83.50
10644;DHT22;5370;50.132;8.626;2023-05-07T03:23:01;15.70;83.80
10644;DHT22;5370;50.132;8.626;2023-05-07T03:25:27;15.70;84.00
10644;DHT22;5370;50.132;8.626;2023-05-07T03:27:53;15.70;84.20
10644;DHT22;5370;50.132;8.626;2023-05-07T03:30:18;15.70;84.40
10644;DHT22;5370;50.132;8.626;2023-05-07T03:32:44;15.70;84.60
10644;DHT22;5370;50.132;8.626;2023-05-07T03:35:09;15.70;84.90
10644;DHT22;5370;50.132;8.626;2023-05-07T03:37:35;15.70;85.30
10644;DHT22;5370;50.132;8.626;2023-05-07T03:40:01;15.60;85.50
10644;DHT22;5370;50.132;8.626;2023-05-07T03:42:28;15.60;85.70
10644;DHT22;5370;50.132;8.626;2023-05-07T03:44:54;15.60;86.10
10644;DHT22;5370;50.132;8.626;2023-05-07T03:47:19;15.60;87.10
10644;DHT22;5370;50.132;8.626;2023-05-07T03:49:45;15.50;86.60
10644;DHT22;5370;50.132;8.626;2023-05-07T03:52:10;15.50;86.90
10644;DHT22;5370;50.132;8.626;2023-05-07T03:54:36;15.50;87.10
10644;DHT22;5370;50.132;8.626;2023-05-07T03:57:02;15.50;87.20
10644;DHT22;5370;50.132;8.626;2023-05-07T03:59:27;15.50;87.40
10644;DHT22;5370;50.132;8.626;2023-05-07T04:01:53;15.50;87.50
10644;DHT22;5370;50.132;8.626;2023-05-07T04:04:18;15.40;87.50
10644;DHT22;5370;50.132;8.626;2023-05-07T04:06:44;15.40;87.70
10644;DHT22;5370;50.132;8.626;2023-05-07T04:09:09;15.40;87.80
10644;DHT22;5370;50.132;8.626;2023-05-07T04:11:35;15.40;87.90
10644;DHT22;5370;50.132;8.626;2023-05-07T04:14:01;15.30;87.90
10644;DHT22;5370;50.132;8.626;2023-05-07T04:16:27;15.30;88.10
10644;DHT22;5370;50.132;8.626;2023-05-07T04:18:52;15.30;88.20
10644;DHT22;5370;50.132;8.626;2023-05-07T04:21:19;15.30;88.40
10644;DHT22;5370;50.132;8.626;2023-05-07T04:23:49;15.30;88.60
10644;DHT22;5370;50.132;8.626;2023-05-07T04:26:15;15.30;88.80
10644;DHT22;5370;50.132;8.626;2023-05-07T04:28:41;15.30;88.90
10644;DHT22;5370;50.132;8.626;2023-05-07T04:31:07;15.40;89.00
10644;DHT22;5370;50.132;8.626;2023-05-07T04:33:33;15.40;89.00
10644;DHT22;5370;50.132;8.626;2023-05-07T04:36:01;15.50;89.00
10644;DHT22;5370;50.132;8.626;2023-05-07T04:38:29;15.50;88.90
10644;DHT22;5370;50.132;8.626;2023-05-07T04:40:55;15.60;88.80
10644;DHT22;5370;50.132;8.626;2023-05-07T04:43:21;15.60;88.50
10644;DHT22;5370;50.132;8.626;2023-05-07T04:45:46;15.60;88.30
10644;DHT22;5370;50.132;8.626;2023-05-07T04:48:12;15.60;88.20
10644;DHT22;5370;50.132;8.626;2023-05-07T04:50:39;15.70;88.20
10644;DHT22;5370;50.132;8.626;2023-05-07T04:53:06;15.70;88.20
10644;DHT22;5370;50.132;8.626;2023-05-07T04:55:31;15.70;88.10
10644;DHT22;5370;50.132;8.626;2023-05-07T04:57:57;15.70;88.10
10644;DHT22;5370;50.132;8.626;2023-05-07T05:00:22;15.70;88.20
10644;DHT22;5370;50.132;8.626;2023-05-07T05:02:48;15.70;88.10
10644;DHT22;5370;50.132;8.626;2023-05-07T05:05:13;15.70;88.10
10644;DHT22;5370;50.132;8.626;2023-05-07T05:07:39;15.70;88.10
10644;DHT22;5370;50.132;8.626;2023-05-07T05:10:06;15.80;88.20
10644;DHT22;5370;50.132;8.626;2023-05-07T05:12:32;15.80;88.10
10644;DHT22;5370;50.132;8.626;2023-05-07T05:14:57;15.80;88.10
10644;DHT22;5370;50.132;8.626;2023-05-07T05:17:23;15.90;88.10
10644;DHT22;5370;50.132;8.626;2023-05-07T05:19:49;15.90;88.00
10644;DHT22;5370;50.132;8.626;2023-05-07T05:22:15;15.90;88.00
10644;DHT22;5370;50.132;8.626;2023-05-07T05:24:40;15.90;87.90
10644;DHT22;5370;50.132;8.626;2023-05-07T05:27:06;16.00;88.10
10644;DHT22;5370;50.132;8.626;2023-05-07T05:29:31;16.00;88.00
10644;DHT22;5370;50.132;8.626;2023-05-07T05:31:57;16.00;88.00
10644;DHT22;5370;50.132;8.626;2023-05-07T05:34:22;16.10;87.90
10644;DHT22;5370;50.132;8.626;2023-05-07T05:36:48;16.20;87.90
10644;DHT22;5370;50.132;8.626;2023-05-07T05:39:14;16.20;87.80
10644;DHT22;5370;50.132;8.626;2023-05-07T05:41:39;16.30;87.60
10644;DHT22;5370;50.132;8.626;2023-05-07T05:44:06;16.40;87.20
10644;DHT22;5370;50.132;8.626;2023-05-07T05:46:31;16.50;86.90
10644;DHT22;5370;50.132;8.626;2023-05-07T05:48:57;16.50;86.50
10644;DHT22;5370;50.132;8.626;2023-05-07T05:51:22;16.60;86.20
10644;DHT22;5370;50.132;8.626;2023-05-07T05:53:48;16.70;86.20
10644;DHT22;5370;50.132;8.626;2023-05-07T05:56:16;16.80;85.70
10644;DHT22;5370;50.132;8.626;2023-05-07T05:58:41;16.90;85.20
10644;DHT22;5370;50.132;8.626;2023-05-07T06:01:07;17.00;84.90
10644;DHT22;5370;50.132;8.626;2023-05-07T06:03:33;17.10;84.40
10644;DHT22;5370;50.132;8.626;2023-05-07T06:05:59;17.30;84.10
10644;DHT22;5370;50.132;8.626;2023-05-07T06:08:25;17.40;83.40
10644;DHT22;5370;50.132;8.626;2023-05-07T06:10:51;17.60;83.00
10644;DHT22;5370;50.132;8.626;2023-05-07T06:13:17;17.70;81.50
10644;DHT22;5370;50.132;8.626;2023-05-07T06:15:42;17.80;80.60
10644;DHT22;5370;50.132;8.626;2023-05-07T06:18:08;17.90;80.10
10644;DHT22;5370;50.132;8.626;2023-05-07T06:20:33;18.00;79.20
10644;DHT22;5370;50.132;8.626;2023-05-07T06:22:59;18.10;78.70
10644;DHT22;5370;50.132;8.626;2023-05-07T06:25:24;18.20;78.40
10644;DHT22;5370;50.132;8.626;2023-05-07T06:27:50;18.50;78.10
10644;DHT22;5370;50.132;8.626;2023-05-07T06:30:15;18.80;76.40
10644;DHT22;5370;50.132;8.626;2023-05-07T06:32:41;19.00;75.20
10644;DHT22;5370;50.132;8.626;2023-05-07T06:35:07;19.20;74.60
10644;DHT22;5370;50.132;8.626;2023-05-07T06:37:32;19.40;72.60
10644;DHT22;5370;50.132;8.626;2023-05-07T06:39:58;19.60;71.80
10644;DHT22;5370;50.132;8.626;2023-05-07T06:42:23;19.90;70.80
10644;DHT22;5370;50.132;8.626;2023-05-07T06:44:49;20.20;68.10
10644;DHT22;5370;50.132;8.626;2023-05-07T06:47:14;20.50;66.90
10644;DHT22;5370;50.132;8.626;2023-05-07T06:49:40;20.60;66.00
10644;DHT22;5370;50.132;8.626;2023-05-07T06:52:05;20.90;65.20
10644;DHT22;5370;50.132;8.626;2023-05-07T06:54:31;21.20;63.60
10644;DHT22;5370;50.132;8.626;2023-05-07T06:56:56;21.70;62.70
10644;DHT22;5370;50.132;8.626;2023-05-07T06:59:23;22.50;60.80
10644;DHT22;5370;50.132;8.626;2023-05-07T07:01:48;23.40;57.90
10644;DHT22;5370;50.132;8.626;2023-05-07T07:04:14;24.40;57.10
10644;DHT22;5370;50.132;8.626;2023-05-07T07:06:40;25.50;53.70
10644;DHT22;5370;50.132;8.626;2023-05-07T07:09:05;26.60;50.50
10644;DHT22;5370;50.132;8.626;2023-05-07T07:11:31;27.40;47.20
10644;DHT22;5370;50.132;8.626;2023-05-07T07:13:56;28.10;45.10
10644;DHT22;5370;50.132;8.626;2023-05-07T07:16:22;28.20;43.30
10644;DHT22;5370;50.132;8.626;2023-05-07T07:18:47;27.90;42.30
10644;DHT22;5370;50.132;8.626;2023-05-07T07:21:13;27.40;42.90
10644;DHT22;5370;50.132;8.626;2023-05-07T07:23:38;26.80;43.80
10644;DHT22;5370;50.132;8.626;2023-05-07T07:26:04;26.40;44.30
10644;DHT22;5370;50.132;8.626;2023-05-07T07:28:31;25.70;44.40
10644;DHT22;5370;50.132;8.626;2023-05-07T07:30:56;25.20;45.60
10644;DHT22;5370;50.132;8.626;2023-05-07T07:33:22;24.90;46.70
10644;DHT22;5370;50.132;8.626;2023-05-07T07:35:47;24.70;46.90
10644;DHT22;5370;50.132;8.626;2023-05-07T07:38:13;24.50;47.30
10644;DHT22;5370;50.132;8.626;2023-05-07T07:40:38;24.70;47.20
10644;DHT22;5370;50.132;8.626;2023-05-07T07:43:04;25.10;46.40
10644;DHT22;5370;50.132;8.626;2023-05-07T07:45:30;25.40;45.90
10644;DHT22;5370;50.132;8.626;2023-05-07T07:47:55;25.40;44.90
10644;DHT22;5370;50.132;8.626;2023-05-07T07:50:21;25.30;45.50
10644;DHT22;5370;50.132;8.626;2023-05-07T07:52:47;25.10;45.90
10644;DHT22;5370;50.132;8.626;2023-05-07T07:55:13;24.90;46.20
10644;DHT22;5370;50.132;8.626;2023-05-07T07:57:39;24.80;46.20
10644;DHT22;5370;50.132;8.626;2023-05-07T08:00:05;24.40;46.00
10644;DHT22;5370;50.132;8.626;2023-05-07T08:02:32;24.10;46.70
10644;DHT22;5370;50.132;8.626;2023-05-07T08:04:57;23.90;47.00
10644;DHT22;5370;50.132;8.626;2023-05-07T08:07:23;23.70;47.50
10644;DHT22;5370;50.132;8.626;2023-05-07T08:09:48;23.40;47.90
10644;DHT22;5370;50.132;8.626;2023-05-07T08:12:14;23.10;48.60
10644;DHT22;5370;50.132;8.626;2023-05-07T08:14:40;23.00;49.10
10644;DHT22;5370;50.132;8.626;2023-05-07T08:17:06;23.00;49.50
10644;DHT22;5370;50.132;8.626;2023-05-07T08:19:31;23.00;49.30
10644;DHT22;5370;50.132;8.626;2023-05-07T08:21:57;22.90;49.20
10644;DHT22;5370;50.132;8.626;2023-05-07T08:24:23;22.80;49.40
10644;DHT22;5370;50.132;8.626;2023-05-07T08:26:48;22.80;49.60
10644;DHT22;5370;50.132;8.626;2023-05-07T08:29:14;22.80;49.80
10644;DHT22;5370;50.132;8.626;2023-05-07T08:31:40;22.70;49.80
10644;DHT22;5370;50.132;8.626;2023-05-07T08:34:06;22.60;49.90
10644;DHT22;5370;50.132;8.626;2023-05-07T08:36:32;22.60;50.30
10644;DHT22;5370;50.132;8.626;2023-05-07T08:38:57;22.50;50.10
10644;DHT22;5370;50.132;8.626;2023-05-07T08:41:23;22.50;50.10
10644;DHT22;5370;50.132;8.626;2023-05-07T08:43:49;22.50;49.90
10644;DHT22;5370;50.132;8.626;2023-05-07T08:46:20;22.50;49.80
10644;DHT22;5370;50.132;8.626;2023-05-07T08:48:48;22.50;49.90
10644;DHT22;5370;50.132;8.626;2023-05-07T08:51:18;22.60;50.10
10644;DHT22;5370;50.132;8.626;2023-05-07T08:53:44;22.60;50.00
10644;DHT22;5370;50.132;8.626;2023-05-07T08:56:09;22.60;49.60
10644;DHT22;5370;50.132;8.626;2023-05-07T08:58:35;22.60;49.70
10644;DHT22;5370;50.132;8.626;2023-05-07T09:01:05;22.60;49.70
10644;DHT22;5370;50.132;8.626;2023-05-07T09:03:32;22.70;50.00
10644;DHT22;5370;50.132;8.626;2023-05-07T09:05:57;22.90;49.80
10644;DHT22;5370;50.132;8.626;2023-05-07T09:08:27;23.00;49.70
10644;DHT22;5370;50.132;8.626;2023-05-07T09:10:53;23.20;49.10
10644;DHT22;5370;50.132;8.626;2023-05-07T09:13:19;23.20;48.60
10644;DHT22;5370;50.132;8.626;2023-05-07T09:15:44;23.20;48.70
10644;DHT22;5370;50.132;8.626;2023-05-07T09:18:10;23.30;48.90
10644;DHT22;5370;50.132;8.626;2023-05-07T09:20:40;23.50;48.80
10644;DHT22;5370;50.132;8.626;2023-05-07T09:23:07;23.60;48.50
10644;DHT22;5370;50.132;8.626;2023-05-07T09:25:34;23.70;48.40
10644;DHT22;5370;50.132;8.626;2023-05-07T09:28:00;23.80;48.20
10644;DHT22;5370;50.132;8.626;2023-05-07T09:30:30;23.90;48.20
10644;DHT22;5370;50.132;8.626;2023-05-07T09:33:00;24.10;47.80
10644;DHT22;5370;50.132;8.626;2023-05-07T09:35:26;24.20;47.60
10644;DHT22;5370;50.132;8.626;2023-05-07T09:37:56;24.30;47.40
10644;DHT22;5370;50.132;8.626;2023-05-07T09:40:26;24.20;47.10
10644;DHT22;5370;50.132;8.626;2023-05-07T09:42:52;24.30;46.90
10644;DHT22;5370;50.132;8.626;2023-05-07T09:45:25;24.40;46.60
10644;DHT22;5370;50.132;8.626;2023-05-07T09:47:55;24.60;46.70
10644;DHT22;5370;50.132;8.626;2023-05-07T09:50:25;24.70;46.20
10644;DHT22;5370;50.132;8.626;2023-05-07T09:52:52;24.70;46.10
10644;DHT22;5370;50.132;8.626;2023-05-07T09:55:18;24.80;46.10
10644;DHT22;5370;50.132;8.626;2023-05-07T09:57:45;24.90;46.00
10644;DHT22;5370;50.132;8.626;2023-05-07T10:00:12;24.90;45.50
10644;DHT22;5370;50.132;8.626;2023-05-07T10:02:39;24.80;45.60
10644;DHT22;5370;50.132;8.626;2023-05-07T10:05:13;24.70;45.80
10644;DHT22;5370;50.132;8.626;2023-05-07T10:07:40;24.60;46.00
10644;DHT22;5370;50.132;8.626;2023-05-07T10:10:07;24.50;46.10
10644;DHT22;5370;50.132;8.626;2023-05-07T10:12:33;24.40;46.40
10644;DHT22;5370;50.132;8.626;2023-05-07T10:15:10;24.30;46.40
10644;DHT22;5370;50.132;8.626;2023-05-07T10:17:37;24.30;46.70
10644;DHT22;5370;50.132;8.626;2023-05-07T10:20:04;24.20;46.80
10644;DHT22;5370;50.132;8.626;2023-05-07T10:22:47;24.20;47.10
10644;DHT22;5370;50.132;8.626;2023-05-07T10:25:30;24.10;47.40
10644;DHT22;5370;50.132;8.626;2023-05-07T10:28:01;24.10;47.50
10644;DHT22;5370;50.132;8.626;2023-05-07T10:33:24;24.00;47.30
10644;DHT22;5370;50.132;8.626;2023-05-07T10:35:51;24.00;47.40
10644;DHT22;5370;50.132;8.626;2023-05-07T10:38:21;24.10;47.40
10644;DHT22;5370;50.132;8.626;2023-05-07T10:40:46;24.20;47.10
10644;DHT22;5370;50.132;8.626;2023-05-07T10:43:12;24.20;47.10
10644;DHT22;5370;50.132;8.626;2023-05-07T10:45:37;24.20;47.10
10644;DHT22;5370;50.132;8.626;2023-05-07T10:50:39;24.40;47.20
10644;DHT22;5370;50.132;8.626;2023-05-07T10:55:47;24.40;47.10
10644;DHT22;5370;50.132;8.626;2023-05-07T10:58:27;24.40;47.20
10644;DHT22;5370;50.132;8.626;2023-05-07T11:00:57;24.40;47.80
10644;DHT22;5370;50.132;8.626;2023-05-07T11:03:24;24.40;47.30
10644;DHT22;5370;50.132;8.626;2023-05-07T11:06:13;24.30;47.20
10644;DHT22;5370;50.132;8.626;2023-05-07T11:11:18;24.20;47.20
10644;DHT22;5370;50.132;8.626;2023-05-07T11:13:48;24.20;47.40
10644;DHT22;5370;50.132;8.626;2023-05-07T11:16:24;24.20;47.60
10644;DHT22;5370;50.132;8.626;2023-05-07T11:18:55;24.20;47.80
10644;DHT22;5370;50.132;8.626;2023-05-07T11:24:04;24.70;47.40
10644;DHT22;5370;50.132;8.626;2023-05-07T11:26:44;24.90;47.00
10644;DHT22;5370;50.132;8.626;2023-05-07T11:29:21;25.20;47.20
10644;DHT22;5370;50.132;8.626;2023-05-07T11:31:51;25.40;46.50
10644;DHT22;5370;50.132;8.626;2023-05-07T11:34:22;25.70;45.50
10644;DHT22;5370;50.132;8.626;2023-05-07T11:36:48;25.60;45.00
10644;DHT22;5370;50.132;8.626;2023-05-07T11:39:32;25.40;45.00
10644;DHT22;5370;50.132;8.626;2023-05-07T11:41:59;25.50;45.30
10644;DHT22;5370;50.132;8.626;2023-05-07T11:44:25;25.60;45.30
10644;DHT22;5370;50.132;8.626;2023-05-07T11:46:50;25.60;45.10
10644;DHT22;5370;50.132;8.626;2023-05-07T11:49:17;25.70;45.10
10644;DHT22;5370;50.132;8.626;2023-05-07T11:51:42;25.70;44.80
10644;DHT22;5370;50.132;8.626;2023-05-07T11:54:08;25.80;44.60
10644;DHT22;5370;50.132;8.626;2023-05-07T11:56:37;26.00;43.70
10644;DHT22;5370;50.132;8.626;2023-05-07T11:59:02;25.90;43.50
10644;DHT22;5370;50.132;8.626;2023-05-07T12:01:28;26.10;43.70
10644;DHT22;5370;50.132;8.626;2023-05-07T12:03:53;26.20;43.10
10644;DHT22;5370;50.132;8.626;2023-05-07T12:06:19;26.20;42.60
10644;DHT22;5370;50.132;8.626;2023-05-07T12:08:46;26.30;42.50
10644;DHT22;5370;50.132;8.626;2023-05-07T12:11:29;26.40;42.00
10644;DHT22;5370;50.132;8.626;2023-05-07T12:13:55;26.60;41.40
10644;DHT22;5370;50.132;8.626;2023-05-07T12:16:21;26.70;41.10
10644;DHT22;5370;50.132;8.626;2023-05-07T12:18:47;26.70;40.10
10644;DHT22;5370;50.132;8.626;2023-05-07T12:21:12;26.90;40.10
10644;DHT22;5370;50.132;8.626;2023-05-07T12:23:39;27.30;40.00
10644;DHT22;5370;50.132;8.626;2023-05-07T12:26:05;27.60;39.30
10644;DHT22;5370;50.132;8.626;2023-05-07T12:28:35;27.70;38.00
10644;DHT22;5370;50.132;8.626;2023-05-07T12:31:02;27.70;37.70
10644;DHT22;5370;50.132;8.626;2023-05-07T12:33:28;27.60;37.80
10644;DHT22;5370;50.132;8.626;2023-05-07T12:35:54;27.60;37.40
10644;DHT22;5370;50.132;8.626;2023-05-07T12:38:21;27.60;37.40
10644;DHT22;5370;50.132;8.626;2023-05-07T12:40:48;27.60;36.90
10644;DHT22;5370;50.132;8.626;2023-05-07T12:43:17;27.60;36.90
10644;DHT22;5370;50.132;8.626;2023-05-07T12:45:44;27.60;36.80
10644;DHT22;5370;50.132;8.626;2023-05-07T12:48:10;27.60;36.90
10644;DHT22;5370;50.132;8.626;2023-05-07T12:50:36;27.70;36.80
10644;DHT22;5370;50.132;8.626;2023-05-07T12:53:05;27.60;37.00
10644;DHT22;5370;50.132;8.626;2023-05-07T12:55:44;27.60;35.90
10644;DHT22;5370;50.132;8.626;2023-05-07T12:58:18;27.60;36.80
10644;DHT22;5370;50.132;8.626;2023-05-07T13:00:44;27.80;37.60
10644;DHT22;5370;50.132;8.626;2023-05-07T13:03:11;27.90;38.10
10644;DHT22;5370;50.132;8.626;2023-05-07T13:05:36;28.10;38.20
10644;DHT22;5370;50.132;8.626;2023-05-07T13:08:02;28.10;38.40
10644;DHT22;5370;50.132;8.626;2023-05-07T13:10:28;28.00;38.30
10644;DHT22;5370;50.132;8.626;2023-05-07T13:12:54;27.80;38.50
10644;DHT22;5370;50.132;8.626;2023-05-07T13:15:21;27.60;39.10
10644;DHT22;5370;50.132;8.626;2023-05-07T13:17:47;27.50;39.60
10644;DHT22;5370;50.132;8.626;2023-05-07T13:20:12;27.40;39.70
10644;DHT22;5370;50.132;8.626;2023-05-07T13:22:39;27.20;39.60
10644;DHT22;5370;50.132;8.626;2023-05-07T13:25:05;26.90;40.20
10644;DHT22;5370;50.132;8.626;2023-05-07T13:27:31;26.60;40.70
10644;DHT22;5370;50.132;8.626;2023-05-07T13:29:57;26.40;41.50
10644;DHT22;5370;50.132;8.626;2023-05-07T13:32:22;26.30;41.60
10644;DHT22;5370;50.132;8.626;2023-05-07T13:34:48;26.30;41.80
10644;DHT22;5370;50.132;8.626;2023-05-07T13:37:13;26.10;41.60
10644;DHT22;5370;50.132;8.626;2023-05-07T13:39:39;26.10;41.90
10644;DHT22;5370;50.132;8.626;2023-05-07T13:42:06;26.00;42.00
10644;DHT22;5370;50.132;8.626;2023-05-07T13:44:31;26.00;42.10
10644;DHT22;5370;50.132;8.626;2023-05-07T13:46:57;25.90;42.10
10644;DHT22;5370;50.132;8.626;2023-05-07T13:49:22;25.90;42.40
10644;DHT22;5370;50.132;8.626;2023-05-07T13:51:49;25.90;42.60
10644;DHT22;5370;50.132;8.626;2023-05-07T13:54:14;25.90;42.50
10644;DHT22;5370;50.132;8.626;2023-05-07T13:56:41;26.00;42.20
10644;DHT22;5370;50.132;8.626;2023-05-07T13:59:06;26.00;42.00
10644;DHT22;5370;50.132;8.626;2023-05-07T14:01:32;26.10;42.10
10644;DHT22;5370;50.132;8.626;2023-05-07T14:03:57;26.20;42.00
10644;DHT22;5370;50.132;8.626;2023-05-07T14:06:24;26.30;42.00
10644;DHT22;5370;50.132;8.626;2023-05-07T14:08:50;26.20;41.80
10644;DHT22;5370;50.132;8.626;2023-05-07T14:11:15;26.20;42.00
10644;DHT22;5370;50.132;8.626;2023-05-07T14:13:41;26.10;41.90
10644;DHT22;5370;50.132;8.626;2023-05-07T14:16:07;26.10;41.80
10644;DHT22;5370;50.132;8.626;2023-05-07T14:18:32;25.90;41.70
10644;DHT22;5370;50.132;8.626;2023-05-07T14:20:59;25.80;41.90
10644;DHT22;5370;50.132;8.626;2023-05-07T14:23:25;25.80;42.00
10644;DHT22;5370;50.132;8.626;2023-05-07T14:25:52;25.70;42.00
10644;DHT22;5370;50.132;8.626;2023-05-07T14:28:18;25.80;42.30
10644;DHT22;5370;50.132;8.626;2023-05-07T14:30:44;25.80;42.20
10644;DHT22;5370;50.132;8.626;2023-05-07T14:33:10;25.80;42.30
10644;DHT22;5370;50.132;8.626;2023-05-07T14:35:35;25.70;41.90
10644;DHT22;5370;50.132;8.626;2023-05-07T14:38:01;25.70;41.90
10644;DHT22;5370;50.132;8.626;2023-05-07T14:40:26;25.60;41.80
10644;DHT22;5370;50.132;8.626;2023-05-07T14:42:52;25.60;41.50
10644;DHT22;5370;50.132;8.626;2023-05-07T14:45:17;25.60;41.70
10644;DHT22;5370;50.132;8.626;2023-05-07T14:47:43;25.60;42.00
10644;DHT22;5370;50.132;8.626;2023-05-07T14:50:09;25.60;42.10
10644;DHT22;5370;50.132;8.626;2023-05-07T14:52:34;25.60;41.80
10644;DHT22;5370;50.132;8.626;2023-05-07T14:55:00;25.60;41.20
10644;DHT22;5370;50.132;8.626;2023-05-07T14:57:25;25.50;41.20
10644;DHT22;5370;50.132;8.626;2023-05-07T14:59:51;25.50;41.30
10644;DHT22;5370;50.132;8.626;2023-05-07T15:02:17;25.50;41.40
10644;DHT22;5370;50.132;8.626;2023-05-07T15:04:43;25.50;41.20
10644;DHT22;5370;50.132;8.626;2023-05-07T15:07:12;25.40;41.30
10644;DHT22;5370;50.132;8.626;2023-05-07T15:09:41;25.30;41.20
10644;DHT22;5370;50.132;8.626;2023-05-07T15:12:07;25.30;41.30
10644;DHT22;5370;50.132;8.626;2023-05-07T15:14:33;25.30;41.20
10644;DHT22;5370;50.132;8.626;2023-05-07T15:16:58;25.30;40.70
10644;DHT22;5370;50.132;8.626;2023-05-07T15:19:24;25.30;40.50
10644;DHT22;5370;50.132;8.626;2023-05-07T15:21:54;25.20;40.40
10644;DHT22;5370;50.132;8.626;2023-05-07T15:24:20;25.10;40.60
10644;DHT22;5370;50.132;8.626;2023-05-07T15:26:45;25.00;40.90
10644;DHT22;5370;50.132;8.626;2023-05-07T15:29:11;24.90;41.20
10644;DHT22;5370;50.132;8.626;2023-05-07T15:31:36;24.80;41.30
10644;DHT22;5370;50.132;8.626;2023-05-07T15:34:05;24.70;41.70
10644;DHT22;5370;50.132;8.626;2023-05-07T15:36:31;24.60;41.90
10644;DHT22;5370;50.132;8.626;2023-05-07T15:38:57;24.50;42.00
10644;DHT22;5370;50.132;8.626;2023-05-07T15:41:22;24.50;42.00
10644;DHT22;5370;50.132;8.626;2023-05-07T15:43:50;24.50;42.00
10644;DHT22;5370;50.132;8.626;2023-05-07T15:46:21;24.40;42.10
10644;DHT22;5370;50.132;8.626;2023-05-07T15:48:48;24.30;42.80
10644;DHT22;5370;50.132;8.626;2023-05-07T15:51:14;24.30;42.20
10644;DHT22;5370;50.132;8.626;2023-05-07T15:53:39;24.30;42.20